Time;durP1;ratioP1;P1;durP2;ratioP2;P2;SDS_P1;SDS_P2;PMS_P1;PMS_P2;Temp;Humidity;BMP_temperature;BMP_pressure;BME280_temperature;BME280_humidity;BME280_pressure;Samples;Min_cycle;Max_cycle;Signal;HPM_P1;HPM_P2
2023/05/20 00:01:36;;;;;;;7.45;4.30;;;;;;;9.93;100.00;102718.03;4991728;28;20080;-80
2023/05/20 00:04:20;;;;;;;8.40;3.83;;;;;;;9.91;100.00;102717.16;4997514;28;20052;-81
2023/05/20 00:07:04;;;;;;;9.95;4.22;;;;;;;9.95;100.00;102723.28;4995110;28;20135;-80
2023/05/20 00:09:51;;;;;;;10.48;4.63;;;;;;;10.00;100.00;102719.69;4993440;28;20049;-80
2023/05/20 00:12:36;;;;;;;9.60;3.70;;;;;;;10.05;100.00;102711.69;4992210;28;20072;-81
2023/05/20 00:15:20;;;;;;;10.82;3.92;;;;;;;10.10;100.00;102707.22;4996905;28;20504;-81
2023/05/20 00:18:05;;;;;;;9.15;3.55;;;;;;;10.12;100.00;102710.72;4994186;28;20961;-82
2023/05/20 00:20:49;;;;;;;9.15;4.15;;;;;;;10.15;100.00;102701.84;4975469;28;20043;-80
2023/05/20 00:23:33;;;;;;;9.15;4.00;;;;;;;10.15;100.00;102705.38;4978398;28;20060;-80
2023/05/20 00:26:17;;;;;;;11.02;3.30;;;;;;;10.19;100.00;102700.94;4984808;28;20048;-80
2023/05/20 00:29:02;;;;;;;10.43;4.20;;;;;;;10.21;100.00;102700.88;4992706;28;20096;-81
2023/05/20 00:31:46;;;;;;;7.38;4.25;;;;;;;10.22;100.00;102703.53;4991326;28;20419;-79
2023/05/20 00:34:30;;;;;;;7.68;3.75;;;;;;;10.19;100.00;102704.44;4994028;28;20061;-80
2023/05/20 00:37:14;;;;;;;8.65;4.10;;;;;;;10.20;100.00;102700.03;4974418;28;20049;-80
2023/05/20 00:39:58;;;;;;;8.45;3.88;;;;;;;10.19;100.00;102696.50;4964950;28;20100;-79
2023/05/20 00:42:42;;;;;;;11.63;4.20;;;;;;;10.17;100.00;102698.31;4993813;28;20057;-79
2023/05/20 00:45:27;;;;;;;10.68;3.85;;;;;;;10.19;100.00;102704.44;4993199;28;20056;-80
2023/05/20 00:48:11;;;;;;;7.68;4.00;;;;;;;10.17;100.00;102700.94;4994333;28;20109;-80
2023/05/20 00:51:03;;;;;;;11.40;4.55;;;;;;;10.15;100.00;102696.56;4979798;28;20056;-81
2023/05/20 00:53:51;;;;;;;10.32;4.20;;;;;;;10.11;100.00;102697.50;4993182;28;20048;-81
2023/05/20 00:56:35;;;;;;;6.65;3.67;;;;;;;10.10;100.00;102698.41;4992306;28;20065;-79
2023/05/20 00:59:19;;;;;;;13.27;4.43;;;;;;;10.08;100.00;102693.13;4976568;28;20109;-81
2023/05/20 01:02:04;;;;;;;8.45;4.20;;;;;;;10.08;100.00;102689.63;4992940;28;20044;-80
2023/05/20 01:04:50;;;;;;;6.78;3.28;;;;;;;10.06;100.00;102686.97;4992398;28;20048;-80
2023/05/20 01:07:35;;;;;;;8.88;4.15;;;;;;;10.05;100.00;102687.88;4979159;28;20055;-80
2023/05/20 01:10:20;;;;;;;11.43;4.68;;;;;;;10.03;100.00;102687.03;4979726;28;20049;-80
2023/05/20 01:13:16;;;;;;;9.57;3.80;;;;;;;10.03;100.00;102687.88;4993660;28;20057;-80
2023/05/20 01:16:02;;;;;;;10.63;4.13;;;;;;;10.03;100.00;102689.69;4980159;28;20164;-80
2023/05/20 01:18:47;;;;;;;7.78;3.72;;;;;;;9.99;100.00;102691.50;4993056;28;20045;-78
2023/05/20 01:21:32;;;;;;;9.90;4.22;;;;;;;9.92;100.00;102680.09;4976441;28;20674;-78
2023/05/20 01:24:16;;;;;;;10.45;4.40;;;;;;;9.86;100.00;102687.25;4992027;28;20400;-81
2023/05/20 01:27:00;;;;;;;7.40;3.92;;;;;;;9.81;100.00;102692.59;4993418;28;20048;-79
2023/05/20 01:29:52;;;;;;;7.05;4.05;;;;;;;9.74;100.00;102677.69;4992619;28;20061;-80
2023/05/20 01:32:39;;;;;;;10.50;4.43;;;;;;;9.74;100.00;102689.16;4991441;28;20044;-80
2023/05/20 01:35:23;;;;;;;9.80;4.10;;;;;;;9.75;100.00;102684.75;4994338;28;20404;-79
2023/05/20 01:38:10;;;;;;;8.73;4.60;;;;;;;9.74;100.00;102680.34;4976006;28;20045;-79
2023/05/20 01:40:55;;;;;;;9.43;4.25;;;;;;;9.75;100.00;102682.09;4978903;28;20147;-79
2023/05/20 01:43:39;;;;;;;10.63;4.50;;;;;;;9.75;100.00;102680.31;4993846;28;20153;-80
2023/05/20 01:46:23;;;;;;;10.20;4.47;;;;;;;9.76;100.00;102681.22;4977610;28;20452;-80
2023/05/20 01:49:08;;;;;;;9.68;4.93;;;;;;;9.75;100.00;102682.09;4979904;28;20583;-79
2023/05/20 01:51:52;;;;;;;9.23;4.97;;;;;;;9.72;100.00;102671.56;4994555;28;20452;-79
2023/05/20 01:54:35;;;;;;;8.85;5.00;;;;;;;9.73;100.00;102681.22;4996279;28;20040;-79
2023/05/20 01:57:20;;;;;;;13.82;5.40;;;;;;;9.72;100.00;102671.56;4990571;28;20191;-79
2023/05/20 02:00:05;;;;;;;9.25;4.78;;;;;;;9.70;100.00;102668.91;4995773;28;20112;-80
2023/05/20 02:02:50;;;;;;;9.52;4.60;;;;;;;9.72;100.00;102672.44;4997854;28;22125;-79
2023/05/20 02:05:34;;;;;;;8.27;4.30;;;;;;;9.73;100.00;102666.25;4998345;28;20511;-80
2023/05/20 02:08:18;;;;;;;7.97;5.20;;;;;;;9.73;100.00;102665.34;4994390;28;20089;-80
2023/05/20 02:11:02;;;;;;;11.13;4.80;;;;;;;9.73;100.00;102665.34;4997699;28;20088;-80
2023/05/20 02:13:46;;;;;;;8.55;4.60;;;;;;;9.74;100.00;102661.81;4993809;28;20634;-80
2023/05/20 02:16:30;;;;;;;12.10;4.53;;;;;;;9.75;100.00;102661.81;4993573;28;20221;-79
2023/05/20 02:19:22;;;;;;;11.80;4.95;;;;;;;9.75;100.00;102663.59;4967942;28;20054;-79
2023/05/20 02:22:06;;;;;;;8.60;4.45;;;;;;;9.73;100.00;102660.97;4994232;28;20166;-79
2023/05/20 02:24:50;;;;;;;9.85;4.70;;;;;;;9.75;100.00;102660.94;4991714;28;20052;-80
2023/05/20 02:27:34;;;;;;;8.88;5.18;;;;;;;9.76;100.00;102666.19;4981904;28;20115;-78
2023/05/20 02:30:18;;;;;;;7.88;4.75;;;;;;;9.72;100.00;102661.84;4991707;28;20099;-79
2023/05/20 02:33:05;;;;;;;8.60;4.25;;;;;;;9.70;100.00;102662.78;4967905;28;20088;-79
2023/05/20 02:35:49;;;;;;;10.88;4.70;;;;;;;9.67;100.00;102662.78;4992933;28;20055;-79
2023/05/20 02:38:34;;;;;;;9.02;4.07;;;;;;;9.69;100.00;102661.03;4983086;28;20099;-79
2023/05/20 02:41:18;;;;;;;7.13;4.60;;;;;;;9.72;100.00;102659.22;4993446;28;21995;-80
2023/05/20 02:44:02;;;;;;;9.27;4.63;;;;;;;9.75;100.00;102667.09;4996193;28;20053;-79
2023/05/20 02:46:46;;;;;;;9.32;4.20;;;;;;;9.77;100.00;102664.44;4982659;28;20105;-79
2023/05/20 02:49:30;;;;;;;9.85;5.22;;;;;;;9.74;100.00;102656.53;4995820;28;20049;-80
2023/05/20 02:52:17;;;;;;;8.90;4.78;;;;;;;9.71;100.00;102660.13;4951521;28;20610;-78
2023/05/20 02:55:01;;;;;;;10.65;4.28;;;;;;;9.68;100.00;102656.59;4997254;28;20045;-78
2023/05/20 02:57:45;;;;;;;8.13;4.25;;;;;;;9.61;100.00;102655.81;4996589;28;20052;-79
2023/05/20 03:00:30;;;;;;;9.40;4.75;;;;;;;9.58;100.00;102659.38;4997928;28;20119;-78
2023/05/20 03:03:14;;;;;;;8.98;4.80;;;;;;;9.56;100.00;102658.53;4992881;28;20076;-80
2023/05/20 03:06:00;;;;;;;7.55;4.25;;;;;;;9.51;100.00;102652.41;4997492;28;20041;-80
2023/05/20 03:08:45;;;;;;;9.63;4.53;;;;;;;9.46;100.00;102665.69;4998476;28;20726;-79
2023/05/20 03:11:29;;;;;;;8.43;4.13;;;;;;;9.40;100.00;102652.53;4994961;28;20091;-80
2023/05/20 03:14:15;;;;;;;6.22;4.22;;;;;;;9.38;100.00;102654.34;4993830;28;20622;-80
2023/05/20 03:16:59;;;;;;;6.22;4.00;;;;;;;9.32;100.00;102652.63;4993909;28;20051;-79
2023/05/20 03:19:43;;;;;;;8.57;4.13;;;;;;;9.29;100.00;102662.34;4993071;28;20643;-80
2023/05/20 03:22:29;;;;;;;7.13;4.45;;;;;;;9.23;100.00;102658.91;4993435;28;20048;-80
2023/05/20 03:25:14;;;;;;;6.93;4.60;;;;;;;9.20;100.00;102660.69;4995063;28;20099;-80
2023/05/20 03:27:58;;;;;;;8.80;4.20;;;;;;;9.12;100.00;102658.13;4993648;28;20548;-79
2023/05/20 03:30:42;;;;;;;13.27;5.18;;;;;;;9.06;100.00;102659.06;4983765;28;20083;-79
2023/05/20 03:33:26;;;;;;;8.85;4.50;;;;;;;9.02;100.00;102659.09;4980777;28;20065;-80
2023/05/20 03:36:10;;;;;;;8.63;4.03;;;;;;;9.01;100.00;102649.44;4977152;28;20468;-81
2023/05/20 03:38:54;;;;;;;8.07;4.05;;;;;;;8.98;100.00;102652.13;4981870;28;20099;-79
2023/05/20 03:41:38;;;;;;;6.65;4.07;;;;;;;9.02;100.00;102659.09;4975972;28;20048;-78
2023/05/20 03:44:22;;;;;;;4.90;3.63;;;;;;;9.00;100.00;102656.50;4995637;28;20084;-80
2023/05/20 03:47:06;;;;;;;11.57;4.20;;;;;;;9.02;100.00;102659.09;4968971;28;20071;-79
2023/05/20 03:49:51;;;;;;;8.52;3.88;;;;;;;9.02;100.00;102660.00;4967195;28;20508;-79
2023/05/20 03:52:35;;;;;;;6.25;4.07;;;;;;;9.04;100.00;102659.97;4995995;28;20103;-79
2023/05/20 03:55:20;;;;;;;7.88;3.92;;;;;;;9.09;100.00;102651.09;4993432;28;20291;-83
2023/05/20 03:58:04;;;;;;;7.38;3.95;;;;;;;9.21;100.00;102657.16;4992206;28;20196;-80
2023/05/20 04:00:48;;;;;;;6.85;3.53;;;;;;;9.29;100.00;102652.66;4980671;28;20791;-83
2023/05/20 04:03:32;;;;;;;6.97;3.40;;;;;;;9.34;100.00;102650.84;4992553;28;20579;-80
2023/05/20 04:06:16;;;;;;;5.75;3.50;;;;;;;9.40;100.00;102649.91;4991986;28;20527;-80
2023/05/20 04:09:01;;;;;;;5.38;3.30;;;;;;;9.45;100.00;102648.09;4994582;28;20060;-81
2023/05/20 04:11:45;;;;;;;5.22;3.45;;;;;;;9.51;100.00;102653.31;4988281;28;20132;-79
2023/05/20 04:14:30;;;;;;;7.28;3.38;;;;;;;9.54;100.00;102643.56;4989125;28;22277;-79
2023/05/20 04:17:14;;;;;;;7.05;3.10;;;;;;;9.58;100.00;102648.78;4991740;28;20076;-80
2023/05/20 04:19:59;;;;;;;4.47;2.92;;;;;;;9.61;100.00;102642.59;4995104;28;20073;-79
2023/05/20 04:22:44;;;;;;;6.38;2.92;;;;;;;9.64;100.00;102646.06;4990285;28;20111;-79
2023/05/20 04:25:28;;;;;;;7.13;3.22;;;;;;;9.68;100.00;102656.59;4992091;28;20064;-81
2023/05/20 04:28:15;;;;;;;5.05;3.05;;;;;;;9.72;100.00;102653.94;4994661;28;20439;-79
2023/05/20 04:31:01;;;;;;;3.45;2.50;;;;;;;9.77;100.00;102656.50;4992562;28;20060;-81
2023/05/20 04:33:45;;;;;;;4.90;2.67;;;;;;;9.82;100.00;102659.97;4993095;28;20053;-80
2023/05/20 04:36:29;;;;;;;5.28;2.80;;;;;;;9.87;100.00;102658.13;4989637;28;20092;-80
2023/05/20 04:39:14;;;;;;;3.50;2.47;;;;;;;9.92;100.00;102653.66;4979326;28;20119;-80
2023/05/20 04:41:58;;;;;;;5.28;2.60;;;;;;;9.98;100.00;102665.03;4992634;28;20421;-79
2023/05/20 04:44:44;;;;;;;4.10;2.35;;;;;;;10.01;100.00;102657.94;4991579;28;20572;-80
2023/05/20 04:47:38;;;;;;;2.20;2.00;;;;;;;10.03;100.00;102652.63;4993512;28;20137;-79
2023/05/20 04:50:22;;;;;;;5.00;2.20;;;;;;;10.03;100.00;102655.28;4993308;28;20053;-79
2023/05/20 04:53:07;;;;;;;4.07;2.20;;;;;;;10.06;100.00;102660.50;4992739;28;20048;-79
2023/05/20 04:55:57;;;;;;;4.28;2.17;;;;;;;10.02;100.00;102656.19;4977652;28;20111;-79
2023/05/20 04:58:44;;;;;;;3.20;2.22;;;;;;;10.02;100.00;102653.53;4965892;28;20155;-80
2023/05/20 05:01:28;;;;;;;5.97;2.40;;;;;;;10.00;100.00;102663.25;4992899;28;20266;-79
2023/05/20 05:04:12;;;;;;;5.60;2.70;;;;;;;10.02;100.00;102664.13;4992161;28;20048;-79
2023/05/20 05:06:56;;;;;;;3.95;2.17;;;;;;;9.99;100.00;102662.38;4974927;28;20057;-78
2023/05/20 05:09:40;;;;;;;2.85;2.10;;;;;;;9.96;100.00;102669.50;4993526;28;20053;-79
2023/05/20 05:12:24;;;;;;;2.20;1.90;;;;;;;9.94;100.00;102666.84;4975424;28;20053;-78
2023/05/20 05:15:09;;;;;;;3.42;2.15;;;;;;;9.91;100.00;102667.78;4980902;28;20175;-79
2023/05/20 05:17:54;;;;;;;4.32;2.13;;;;;;;9.90;100.00;102671.31;4979388;28;20252;-80
2023/05/20 05:20:39;;;;;;;2.85;2.25;;;;;;;9.90;100.00;102673.06;4990718;28;20155;-79
2023/05/20 05:23:22;;;;;;;4.13;2.00;;;;;;;9.84;100.00;102668.75;4978611;28;20120;-79
2023/05/20 05:26:07;;;;;;;3.42;1.90;;;;;;;9.87;100.00;102668.69;4993181;28;20789;-80
2023/05/20 05:28:53;;;;;;;3.00;2.03;;;;;;;9.87;100.00;102666.06;4979368;28;20116;-79
2023/05/20 05:31:37;;;;;;;2.30;1.73;;;;;;;9.89;100.00;102666.94;4996050;28;20135;-78
2023/05/20 05:34:22;;;;;;;3.00;1.98;;;;;;;9.94;100.00;102665.97;4985083;28;20091;-81
2023/05/20 05:37:05;;;;;;;2.50;1.60;;;;;;;9.99;100.00;102666.78;4963576;28;20989;-79
2023/05/20 05:39:50;;;;;;;2.90;1.70;;;;;;;10.06;100.00;102668.44;4983559;28;20036;-78
2023/05/20 05:42:34;;;;;;;2.95;1.92;;;;;;;10.14;100.00;102663.91;4983950;28;20103;-80
2023/05/20 05:45:18;;;;;;;2.17;1.90;;;;;;;10.23;100.00;102664.72;4994651;28;20110;-79
2023/05/20 05:48:02;;;;;;;3.63;2.00;;;;;;;10.30;100.00;102661.91;4996208;28;20100;-79
2023/05/20 05:50:46;;;;;;;2.78;1.90;;;;;;;10.42;100.00;102671.47;4979094;28;20068;-79
2023/05/20 05:53:35;;;;;;;3.13;1.83;;;;;;;10.58;100.00;102663.31;4996515;28;20080;-78
2023/05/20 05:56:20;;;;;;;2.10;1.60;;;;;;;10.81;100.00;102660.28;4994122;28;20087;-81
2023/05/20 05:59:04;;;;;;;3.92;2.05;;;;;;;10.96;100.00;102659.09;4996626;28;20053;-82
2023/05/20 06:01:49;;;;;;;2.85;1.80;;;;;;;11.13;100.00;102664.09;4981126;28;20080;-78
2023/05/20 06:04:33;;;;;;;2.60;1.90;;;;;;;11.21;100.00;102663.97;4978276;28;20064;-77
2023/05/20 06:07:17;;;;;;;2.55;1.92;;;;;;;11.27;100.00;102658.53;4994093;28;20090;-78
2023/05/20 06:10:01;;;;;;;4.45;1.65;;;;;;;11.31;100.00;102663.78;4997099;28;20056;-79
2023/05/20 06:12:45;;;;;;;3.35;1.80;;;;;;;11.38;100.00;102653.03;4995583;28;20228;-80
2023/05/20 06:15:29;;;;;;;2.90;1.75;;;;;;;11.59;100.00;102657.94;4997797;28;20165;-80
2023/05/20 06:18:13;;;;;;;2.38;1.38;;;;;;;11.81;100.00;102667.19;4992536;28;20500;-78
2023/05/20 06:20:58;;;;;;;1.67;1.55;;;;;;;12.01;100.00;102665.88;4981322;28;20049;-82
2023/05/20 06:23:42;;;;;;;2.13;1.63;;;;;;;12.26;100.00;102665.31;4983514;28;20497;-79
2023/05/20 06:26:26;;;;;;;2.92;1.58;;;;;;;12.44;100.00;102660.47;4983483;28;20849;-79
2023/05/20 06:29:11;;;;;;;3.35;1.73;;;;;;;12.44;100.00;102666.69;4994604;28;21014;-79
2023/05/20 06:31:57;;;;;;;2.45;1.58;;;;;;;12.30;100.00;102658.16;4989976;28;20052;-80
2023/05/20 06:34:42;;;;;;;2.78;1.60;;;;;;;12.17;100.00;102665.53;4970588;28;20045;-78
2023/05/20 06:37:26;;;;;;;2.15;1.50;;;;;;;12.03;100.00;102653.47;4993303;28;20056;-78
2023/05/20 06:40:11;;;;;;;1.92;1.40;;;;;;;11.97;100.00;102660.66;4995480;28;20057;-78
2023/05/20 06:42:57;;;;;;;3.78;1.58;;;;;;;11.95;100.00;102655.38;4978841;28;20154;-79
2023/05/20 06:45:42;;;;;;;3.38;1.50;;;;;;;12.19;100.00;102663.72;4993393;28;20512;-79
2023/05/20 06:48:27;;;;;;;2.90;1.40;;;;;;;12.56;100.00;102664.63;4998881;28;20686;-78
2023/05/20 06:51:14;;;;;;;2.20;1.40;;;;;;;12.85;100.00;102663.03;4977080;28;20048;-79
2023/05/20 06:54:01;;;;;;;2.33;1.67;;;;;;;13.15;100.00;102649.81;4980047;28;20073;-81
2023/05/20 06:56:45;;;;;;;1.42;1.33;;;;;;;13.39;100.00;102650.03;4977100;28;20039;-79
2023/05/20 06:59:29;;;;;;;1.30;1.20;;;;;;;13.58;100.00;102639.78;4969048;28;21065;-78
2023/05/20 07:02:13;;;;;;;1.83;1.40;;;;;;;13.79;100.00;102640.03;4993047;28;20095;-79
2023/05/20 07:04:58;;;;;;;3.95;1.55;;;;;;;13.96;100.00;102634.19;4981658;28;20080;-81
2023/05/20 07:07:42;;;;;;;2.80;1.40;;;;;;;14.17;100.00;102634.44;4996184;28;20044;-79
2023/05/20 07:10:26;;;;;;;1.73;1.60;;;;;;;14.33;100.00;102629.47;4997587;28;20127;-79
2023/05/20 07:13:10;;;;;;;2.95;1.20;;;;;;;14.54;100.00;102627.88;4984534;28;20057;-79
2023/05/20 07:15:57;;;;;;;2.28;1.25;;;;;;;14.70;100.00;102633.56;4996915;28;20069;-79
2023/05/20 07:18:43;;;;;;;3.03;1.30;;;;;;;14.96;99.76;102628.25;4998747;28;20087;-82
2023/05/20 07:21:27;;;;;;;1.98;1.10;;;;;;;15.06;93.23;102632.34;4967530;28;20049;-78
2023/05/20 07:24:11;;;;;;;2.35;1.40;;;;;;;15.16;94.09;102635.56;4971814;28;20069;-79
2023/05/20 07:26:56;;;;;;;1.60;1.10;;;;;;;15.29;92.34;102638.63;4972145;28;20108;-79
2023/05/20 07:29:40;;;;;;;1.08;0.93;;;;;;;15.37;93.22;102643.69;4972340;28;20049;-79
2023/05/20 07:32:24;;;;;;;1.95;1.08;;;;;;;15.42;91.26;102644.41;4971627;28;20253;-79
2023/05/20 07:35:08;;;;;;;2.95;0.98;;;;;;;15.48;88.40;102639.69;4971873;28;20045;-79
2023/05/20 07:38:00;;;;;;;0.90;0.80;;;;;;;15.50;86.98;102633.41;4968558;28;20109;-80
2023/05/20 07:40:44;;;;;;;1.52;1.17;;;;;;;15.51;86.02;102624.50;4973249;28;20060;-79
2023/05/20 07:43:28;;;;;;;2.10;1.00;;;;;;;15.55;85.33;102631.44;4974238;28;20085;-79
2023/05/20 07:46:22;;;;;;;;;;;;;;;;;;;;;
2023/05/20 07:49:06;;;;;;;1.52;1.10;;;;;;;15.70;85.11;102625.50;4973679;28;20058;-80
2023/05/20 07:51:50;;;;;;;1.52;1.25;;;;;;;15.81;86.10;102622.44;4968176;28;20045;-82
2023/05/20 07:54:35;;;;;;;1.45;0.98;;;;;;;15.91;84.45;102622.91;4972426;28;20517;-79
2023/05/20 07:57:19;;;;;;;1.30;1.15;;;;;;;15.98;82.17;102620.91;4970719;28;20049;-88
2023/05/20 08:00:05;;;;;;;2.40;1.30;;;;;;;16.08;84.46;102627.63;4971021;28;20112;-79
2023/05/20 08:02:48;;;;;;;1.23;1.05;;;;;;;16.20;82.27;102626.25;4970204;28;20049;-81
2023/05/20 08:05:35;;;;;;;1.40;1.20;;;;;;;16.29;82.20;102622.34;4969572;28;20536;-80
2023/05/20 08:08:20;;;;;;;1.13;1.02;;;;;;;16.32;79.79;102632.00;4984311;28;20092;-81
2023/05/20 08:11:04;;;;;;;2.40;0.90;;;;;;;16.39;79.90;102615.66;4970582;28;20923;-81
2023/05/20 08:13:48;;;;;;;1.58;0.95;;;;;;;16.49;79.33;102617.94;4971352;28;20138;-81
2023/05/20 08:16:32;;;;;;;1.08;0.98;;;;;;;16.59;81.28;102619.31;4973009;28;20057;-81
2023/05/20 08:19:16;;;;;;;2.22;1.00;;;;;;;16.72;79.49;102613.44;4971895;28;20049;-83
2023/05/20 08:22:01;;;;;;;1.30;1.10;;;;;;;16.81;79.23;102624.59;4971301;28;20062;-81
2023/05/20 08:24:45;;;;;;;1.52;1.00;;;;;;;16.86;78.70;102612.81;4970498;28;20057;-81
2023/05/20 08:27:29;;;;;;;1.85;1.30;;;;;;;16.87;76.73;102617.22;4985125;28;20054;-81
2023/05/20 08:30:13;;;;;;;1.52;0.95;;;;;;;16.87;76.49;102604.72;4974937;28;20240;-90
2023/05/20 08:32:57;;;;;;;1.48;1.00;;;;;;;16.95;75.30;102605.25;4980903;28;20085;-88
2023/05/20 08:35:41;;;;;;;2.72;1.30;;;;;;;17.06;77.31;102609.28;4979374;28;20050;-88
2023/05/20 08:38:25;;;;;;;2.05;1.10;;;;;;;17.03;76.59;102606.75;4992479;28;20170;-88
2023/05/20 08:41:10;;;;;;;2.25;1.35;;;;;;;16.99;74.31;102603.31;4974433;28;20057;-82
2023/05/20 08:43:54;;;;;;;1.30;1.20;;;;;;;17.09;76.66;102602.00;4983393;28;20117;-83
2023/05/20 08:46:39;;;;;;;1.27;1.17;;;;;;;17.26;77.72;102599.50;4975099;28;20042;-87
2023/05/20 08:49:25;;;;;;;1.30;0.95;;;;;;;17.24;77.25;102595.09;4968073;28;20120;-83
2023/05/20 08:52:12;;;;;;;1.60;1.23;;;;;;;17.19;77.16;102589.06;4968391;28;20121;-83
2023/05/20 08:54:57;;;;;;;3.30;1.27;;;;;;;17.16;75.81;102585.66;4974201;28;20568;-83
2023/05/20 08:57:44;;;;;;;3.22;1.40;;;;;;;17.16;77.40;102594.53;4974088;28;20092;-83
2023/05/20 09:00:28;;;;;;;1.70;1.10;;;;;;;17.18;77.73;102584.66;4970566;28;20084;-87
2023/05/20 09:03:20;;;;;;;1.30;1.20;;;;;;;17.26;75.85;102591.47;4969549;28;20599;-85
2023/05/20 09:06:08;;;;;;;1.60;1.08;;;;;;;17.35;77.77;102588.34;4954990;28;20093;-85
2023/05/20 09:08:54;;;;;;;4.43;1.20;;;;;;;17.33;78.91;102582.19;4969280;28;20064;-84
2023/05/20 09:11:40;;;;;;;1.58;1.13;;;;;;;17.44;78.09;102585.22;4970636;28;20065;-86
2023/05/20 09:14:26;;;;;;;1.20;1.10;;;;;;;17.46;76.17;102577.13;4986547;28;20386;-88
2023/05/20 09:17:12;;;;;;;2.00;1.30;;;;;;;17.55;77.62;102583.88;4972123;28;20100;-86
2023/05/20 09:19:59;;;;;;;1.20;1.10;;;;;;;17.59;78.29;102572.06;4986483;28;20038;-85
2023/05/20 09:22:46;;;;;;;2.53;1.05;;;;;;;17.69;76.65;102573.34;4990284;28;20603;-80
2023/05/20 09:25:30;;;;;;;3.42;1.40;;;;;;;17.81;76.55;102571.03;4997185;28;20951;-78
2023/05/20 09:28:14;;;;;;;1.67;0.90;;;;;;;17.91;75.60;102564.25;4982146;28;20084;-83
2023/05/20 09:30:59;;;;;;;2.55;1.25;;;;;;;17.86;73.93;102563.63;4996110;28;20136;-85
2023/05/20 09:33:43;;;;;;;2.40;1.20;;;;;;;17.90;75.08;102562.53;4967624;28;20079;-79
2023/05/20 09:36:28;;;;;;;1.60;1.10;;;;;;;17.83;72.95;102555.75;4968509;28;21088;-81
2023/05/20 09:39:17;;;;;;;1.50;1.10;;;;;;;17.84;72.31;102558.34;4978811;28;20152;-84
2023/05/20 09:42:06;;;;;;;2.45;1.15;;;;;;;17.88;71.56;102553.72;4983138;28;20041;-82
2023/05/20 09:44:55;;;;;;;2.75;1.10;;;;;;;17.86;71.44;102547.56;4995735;28;20060;-78
2023/05/20 09:47:40;;;;;;;3.72;1.23;;;;;;;17.82;71.97;102554.00;4981173;28;20155;-82
2023/05/20 09:50:24;;;;;;;1.48;1.20;;;;;;;17.87;72.23;102542.13;4994133;28;20622;-82
2023/05/20 09:53:12;;;;;;;1.33;1.10;;;;;;;17.93;70.99;102549.00;4978426;28;20036;-82
2023/05/20 09:55:57;;;;;;;1.73;0.95;;;;;;;17.99;71.45;102534.41;4991480;28;21062;-81
2023/05/20 09:58:44;;;;;;;1.92;1.10;;;;;;;18.05;69.90;102537.66;4972752;28;20041;-85
2023/05/20 10:01:28;;;;;;;1.30;1.10;;;;;;;17.88;70.67;102530.44;4979784;28;20133;-84
2023/05/20 10:04:15;;;;;;;1.50;1.30;;;;;;;17.81;69.96;102533.53;4981437;28;20059;-86
2023/05/20 10:07:11;;;;;;;2.53;1.30;;;;;;;17.76;69.32;102520.38;4995109;28;20072;-84
2023/05/20 10:10:19;;;;;;;1.85;1.30;;;;;;;17.64;69.49;102516.47;4982871;28;20091;-84
2023/05/20 10:13:21;;;;;;;1.48;1.15;;;;;;;17.62;70.40;102518.34;5003863;28;20053;-87
2023/05/20 10:16:17;;;;;;;4.07;1.40;;;;;;;17.61;69.06;102521.97;5006044;28;20589;-85
2023/05/20 10:19:24;;;;;;;2.38;1.33;;;;;;;17.61;70.94;102508.59;5001533;28;20140;-80
2023/05/20 10:22:09;;;;;;;1.65;1.15;;;;;;;17.59;72.22;102510.50;4995753;28;20057;-78
2023/05/20 10:24:59;;;;;;;1.83;1.23;;;;;;;17.50;72.36;102509.13;4997108;28;20049;-76
2023/05/20 10:27:47;;;;;;;1.98;1.27;;;;;;;17.50;72.44;102501.09;4978861;28;20127;-74
2023/05/20 10:30:33;;;;;;;1.50;1.20;;;;;;;17.47;74.33;102502.09;4981967;28;20048;-78
2023/05/20 10:33:18;;;;;;;2.42;1.45;;;;;;;17.43;73.36;102497.81;4985190;28;20101;-83
2023/05/20 10:36:02;;;;;;;2.67;1.48;;;;;;;17.45;72.40;102500.44;4986057;28;20096;-78
2023/05/20 10:38:51;;;;;;;1.50;1.10;;;;;;;17.40;72.82;102497.09;4987130;28;20763;-84
2023/05/20 10:41:36;;;;;;;1.30;1.20;;;;;;;17.45;73.30;102495.09;5003581;28;20061;-86
2023/05/20 10:44:20;;;;;;;2.22;1.23;;;;;;;17.44;74.02;102488.84;5004978;28;20044;-82
2023/05/20 10:47:05;;;;;;;1.58;1.40;;;;;;;17.39;74.12;102496.25;4989031;28;20081;-86
2023/05/20 10:49:49;;;;;;;2.10;1.40;;;;;;;17.36;74.54;102499.06;4974970;28;20048;-87
2023/05/20 10:52:35;;;;;;;3.30;1.45;;;;;;;17.19;75.42;102491.84;4985088;28;20056;-85
2023/05/20 10:55:22;;;;;;;1.92;1.45;;;;;;;17.04;76.31;102480.06;4997174;28;20056;-82
2023/05/20 10:58:06;;;;;;;1.52;1.42;;;;;;;17.07;76.87;102487.94;4997905;28;20071;-83
2023/05/20 11:00:53;;;;;;;2.45;1.50;;;;;;;17.09;76.95;102483.38;4997265;28;20052;-85
2023/05/20 11:03:37;;;;;;;3.47;1.40;;;;;;;17.05;77.62;102487.16;4996830;28;20067;-85
2023/05/20 11:06:27;;;;;;;3.97;1.75;;;;;;;17.02;78.00;102479.25;4994517;28;20070;-86
2023/05/20 11:09:11;;;;;;;3.28;1.75;;;;;;;17.01;78.24;102470.34;4986861;28;20056;-82
2023/05/20 11:11:55;;;;;;;2.42;1.85;;;;;;;16.95;77.38;102465.28;4995756;28;20510;-83
2023/05/20 11:14:39;;;;;;;3.13;1.63;;;;;;;16.86;78.34;102468.38;4974572;28;20053;-85
2023/05/20 11:17:22;;;;;;;4.13;1.98;;;;;;;16.67;79.15;102464.75;5003112;28;20056;-84
2023/05/20 11:20:09;;;;;;;3.55;1.75;;;;;;;16.55;79.31;102463.50;4990936;28;20053;-86
2023/05/20 11:22:53;;;;;;;4.53;1.60;;;;;;;16.55;80.68;102451.94;4996695;28;20116;-85
2023/05/20 11:25:38;;;;;;;3.40;1.88;;;;;;;16.76;81.56;102463.47;5000746;28;20192;-83
2023/05/20 11:28:23;;;;;;;2.90;1.90;;;;;;;16.82;80.35;102451.59;4990237;28;20515;-85
2023/05/20 11:31:19;;;;;;;2.75;1.90;;;;;;;16.79;81.71;102463.31;5003936;28;21093;-80
2023/05/20 11:34:03;;;;;;;2.67;1.88;;;;;;;16.83;80.45;102458.69;4990038;28;20057;-85
2023/05/20 11:36:49;;;;;;;3.67;1.75;;;;;;;16.95;81.01;102451.91;4997616;28;20061;-84
2023/05/20 11:39:33;;;;;;;3.65;2.10;;;;;;;17.07;80.64;102447.81;4998195;28;20071;-84
2023/05/20 11:42:17;;;;;;;1.92;1.73;;;;;;;17.24;80.41;102449.69;5000933;28;20128;-82
2023/05/20 11:45:01;;;;;;;3.75;2.00;;;;;;;17.23;81.34;102448.81;4988654;28;20040;-88
2023/05/20 11:47:46;;;;;;;3.28;1.90;;;;;;;17.23;81.45;102453.31;4988232;28;20480;-84
2023/05/20 11:50:38;;;;;;;4.40;2.00;;;;;;;17.14;80.79;102446.59;4990550;28;20733;-85
2023/05/20 11:53:23;;;;;;;3.00;1.90;;;;;;;17.15;81.39;102434.94;5000511;28;20135;-87
2023/05/20 11:56:07;;;;;;;3.95;1.73;;;;;;;17.21;81.38;102439.13;5003689;28;20053;-88
2023/05/20 11:58:51;;;;;;;5.05;2.53;;;;;;;17.27;80.29;102432.59;4991108;28;20061;-87
2023/05/20 12:01:41;;;;;;;2.33;1.75;;;;;;;17.31;81.35;102428.81;4980813;28;20040;-89
2023/05/20 12:04:26;;;;;;;3.22;1.98;;;;;;;17.35;80.60;102430.41;4991734;28;20068;-86
2023/05/20 12:07:10;;;;;;;3.78;2.33;;;;;;;17.36;80.58;102421.44;4998970;28;20155;-86
2023/05/20 12:09:56;;;;;;;2.72;1.90;;;;;;;17.50;80.59;102421.63;5003997;28;20108;-87
2023/05/20 12:12:42;;;;;;;2.97;2.05;;;;;;;17.45;80.17;102420.13;5003809;28;20194;-88
2023/05/20 12:15:27;;;;;;;2.33;1.90;;;;;;;17.36;80.23;102416.09;4992505;28;20049;-87
2023/05/20 12:18:11;;;;;;;6.47;2.30;;;;;;;17.40;80.98;102415.00;4995184;28;20072;-87
2023/05/20 12:20:55;;;;;;;4.60;2.50;;;;;;;17.45;80.66;102404.94;4990219;28;20125;-82
2023/05/20 12:23:39;;;;;;;4.65;2.17;;;;;;;17.53;81.08;102419.75;5003199;28;20077;-83
2023/05/20 12:26:24;;;;;;;4.63;1.95;;;;;;;17.54;80.65;102405.41;4989529;28;20405;-86
2023/05/20 12:29:08;;;;;;;4.25;2.10;;;;;;;17.60;81.72;102413.16;5001108;28;20170;-84
2023/05/20 12:31:52;;;;;;;4.28;1.73;;;;;;;17.63;80.64;102412.97;5000459;28;20061;-85
2023/05/20 12:34:36;;;;;;;3.22;1.88;;;;;;;17.50;80.68;102407.38;5004455;28;20844;-87
2023/05/20 12:37:23;;;;;;;2.58;1.92;;;;;;;17.42;80.94;102405.09;4985143;28;20130;-84
2023/05/20 12:40:09;;;;;;;3.60;2.03;;;;;;;17.39;80.28;102399.91;4976122;28;20495;-87
2023/05/20 12:42:57;;;;;;;2.47;1.83;;;;;;;17.32;80.69;102409.16;5004588;28;20056;-84
2023/05/20 12:45:41;;;;;;;1.85;1.60;;;;;;;17.20;80.33;102405.25;4986344;28;20060;-87
2023/05/20 12:48:25;;;;;;;4.43;2.05;;;;;;;17.21;80.75;102402.53;4986629;28;20166;-85